createdAt,value
2022-12-25T00:00:41.699Z,5.87
2022-12-25T00:03:08.330Z,5.83
2022-12-25T00:05:38.625Z,7.33
2022-12-25T00:08:06.592Z,7.10
2022-12-25T00:10:33.841Z,7.60
2022-12-25T00:13:00.399Z,6.50
2022-12-25T00:15:27.390Z,6.40
2022-12-25T00:17:54.050Z,7.57
2022-12-25T00:20:20.544Z,7.13
2022-12-25T00:22:47.028Z,6.80
2022-12-25T00:25:13.579Z,7.77
2022-12-25T00:27:40.131Z,6.50
2022-12-25T00:30:10.663Z,6.53
2022-12-25T00:32:37.501Z,7.30
2022-12-25T00:35:05.285Z,6.70
2022-12-25T00:37:31.752Z,6.63
2022-12-25T00:39:58.799Z,5.47
2022-12-25T00:42:26.908Z,4.23
2022-12-25T00:44:53.495Z,3.60
2022-12-25T00:47:20.025Z,3.23
2022-12-25T00:49:46.719Z,3.60
2022-12-25T00:52:13.309Z,2.93
2022-12-25T00:54:39.791Z,3.20
2022-12-25T00:57:06.328Z,2.67
2022-12-25T00:59:34.149Z,3.00
2022-12-25T01:02:20.979Z,2.07
2022-12-25T01:04:47.622Z,2.80
2022-12-25T01:07:14.105Z,2.50
2022-12-25T01:09:59.069Z,2.53
2022-12-25T01:12:25.552Z,2.60
2022-12-25T01:14:52.060Z,2.70
2022-12-25T01:17:18.545Z,3.00
2022-12-25T01:19:45.017Z,2.50
2022-12-25T01:22:11.447Z,2.80
2022-12-25T01:24:39.507Z,2.93
2022-12-25T01:27:05.970Z,3.03
2022-12-25T01:29:32.458Z,2.77
2022-12-25T01:31:58.945Z,3.47
2022-12-25T01:34:25.608Z,3.50
2022-12-25T01:36:52.229Z,3.60
2022-12-25T01:39:18.760Z,4.13
2022-12-25T01:41:45.353Z,3.90
2022-12-25T01:44:14.820Z,3.50
2022-12-25T01:46:42.653Z,3.00
2022-12-25T01:49:22.908Z,2.83
2022-12-25T01:52:03.339Z,3.33
2022-12-25T01:54:35.244Z,3.10
2022-12-25T01:57:06.619Z,3.70
2022-12-25T01:59:33.257Z,3.00
2022-12-25T02:02:00.560Z,3.30
2022-12-25T02:04:39.282Z,3.07
2022-12-25T02:07:14.228Z,2.93
2022-12-25T02:09:40.850Z,2.83
2022-12-25T02:12:09.511Z,2.30
2022-12-25T02:14:37.401Z,2.53
2022-12-25T02:17:19.231Z,2.67
2022-12-25T02:20:19.217Z,2.50
2022-12-25T02:22:54.334Z,3.17
2022-12-25T02:25:45.068Z,3.03
2022-12-25T02:28:36.251Z,2.27
2022-12-25T02:31:14.688Z,2.63
2022-12-25T02:34:03.331Z,2.30
2022-12-25T02:36:49.177Z,2.00
2022-12-25T02:40:00.310Z,3.17
2022-12-25T02:42:54.731Z,2.80
2022-12-25T02:45:49.317Z,3.20
2022-12-25T02:48:37.451Z,3.83
2022-12-25T02:51:25.876Z,4.10
2022-12-25T02:54:13.750Z,4.07
2022-12-25T02:57:01.521Z,3.67
2022-12-25T02:59:48.888Z,3.87
2022-12-25T03:02:35.871Z,3.27
2022-12-25T03:05:26.739Z,3.30
2022-12-25T03:07:55.819Z,3.93
2022-12-25T03:10:55.013Z,4.63
2022-12-25T03:13:26.540Z,4.20
2022-12-25T03:16:12.169Z,4.37
2022-12-25T03:18:39.048Z,3.97
2022-12-25T03:21:24.677Z,3.37
2022-12-25T03:24:14.488Z,3.90
2022-12-25T03:26:55.846Z,3.60
2022-12-25T03:29:48.045Z,3.13
2022-12-25T03:32:40.020Z,2.80
2022-12-25T03:35:30.796Z,3.57
2022-12-25T03:38:34.231Z,3.33
2022-12-25T03:41:25.789Z,3.10
2022-12-25T03:44:20.655Z,3.80
2022-12-25T03:47:31.148Z,3.83
2022-12-25T03:50:23.859Z,3.80
2022-12-25T03:53:11.645Z,4.27
2022-12-25T03:55:58.145Z,4.10
2022-12-25T03:58:56.025Z,4.10
2022-12-25T04:01:41.018Z,4.00
2022-12-25T04:04:26.219Z,3.07
2022-12-25T04:07:11.484Z,2.93
2022-12-25T04:09:56.753Z,2.93
2022-12-25T04:12:41.890Z,2.60
2022-12-25T04:15:27.637Z,2.20
2022-12-25T04:18:12.829Z,2.50
2022-12-25T04:20:57.973Z,2.33
2022-12-25T04:23:43.179Z,2.50
2022-12-25T04:26:41.980Z,2.93
2022-12-25T04:29:26.759Z,2.63
2022-12-25T04:32:11.931Z,2.70
2022-12-25T04:34:57.136Z,2.57
2022-12-25T04:37:23.742Z,2.50
2022-12-25T04:39:50.224Z,2.83
2022-12-25T04:42:17.060Z,2.87
2022-12-25T04:44:43.520Z,3.00
2022-12-25T04:47:11.746Z,3.37
2022-12-25T04:49:38.782Z,3.20
2022-12-25T04:52:05.430Z,3.23
2022-12-25T04:54:32.063Z,2.93
2022-12-25T04:56:58.589Z,3.17
2022-12-25T04:59:25.275Z,2.77
2022-12-25T05:01:51.832Z,2.33
2022-12-25T05:04:18.412Z,3.00
2022-12-25T05:06:44.928Z,2.63
2022-12-25T05:09:11.466Z,2.70
2022-12-25T05:11:38.028Z,2.60
2022-12-25T05:14:04.601Z,2.63
2022-12-25T05:16:31.291Z,2.13
2022-12-25T05:18:57.955Z,2.53
2022-12-25T05:21:24.608Z,2.17
2022-12-25T05:23:52.569Z,2.30
2022-12-25T05:26:22.506Z,2.83
2022-12-25T05:28:49.505Z,2.53
2022-12-25T05:31:16.730Z,2.00
2022-12-25T05:33:43.557Z,2.70
2022-12-25T05:36:12.179Z,2.00
2022-12-25T05:38:39.132Z,2.60
2022-12-25T05:41:05.858Z,2.17
2022-12-25T05:43:32.741Z,2.37
2022-12-25T05:46:08.638Z,3.13
2022-12-25T05:48:37.565Z,2.57
2022-12-25T05:51:10.208Z,2.87
2022-12-25T05:53:37.792Z,2.07
2022-12-25T05:56:06.395Z,2.40
2022-12-25T05:58:34.498Z,2.03
2022-12-25T06:01:01.640Z,2.50
2022-12-25T06:03:28.538Z,2.37
2022-12-25T06:05:55.389Z,2.73
2022-12-25T06:08:21.981Z,3.30
2022-12-25T06:10:48.458Z,2.53
2022-12-25T06:13:15.062Z,2.70
2022-12-25T06:15:42.100Z,3.47
2022-12-25T06:18:09.067Z,3.00
2022-12-25T06:20:35.898Z,2.33
2022-12-25T06:23:02.488Z,2.40
2022-12-25T06:25:29.136Z,2.43
2022-12-25T06:27:55.669Z,2.50
2022-12-25T06:30:22.191Z,2.73
2022-12-25T06:32:48.692Z,2.73
2022-12-25T06:35:15.306Z,2.90
2022-12-25T06:37:41.837Z,2.80
2022-12-25T06:40:08.819Z,2.80
2022-12-25T06:42:35.353Z,2.97
2022-12-25T06:45:01.876Z,3.33
2022-12-25T06:47:28.426Z,2.77
2022-12-25T06:49:54.919Z,3.23
2022-12-25T06:52:21.380Z,2.87
2022-12-25T06:54:47.869Z,2.57
2022-12-25T06:57:14.408Z,2.90
2022-12-25T06:59:40.949Z,2.93
2022-12-25T07:02:18.808Z,3.17
2022-12-25T07:04:46.428Z,3.33
2022-12-25T07:07:13.204Z,3.70
2022-12-25T07:09:40.072Z,3.40
2022-12-25T07:12:13.962Z,2.60
2022-12-25T07:14:40.779Z,3.13
2022-12-25T07:17:07.228Z,2.90
2022-12-25T07:19:34.676Z,2.70
2022-12-25T07:22:02.550Z,3.90
2022-12-25T07:24:29.019Z,3.70
2022-12-25T07:26:55.462Z,3.10
2022-12-25T07:29:21.905Z,2.90
2022-12-25T07:31:48.498Z,3.00
2022-12-25T07:34:17.815Z,2.73
2022-12-25T07:36:44.271Z,2.77
2022-12-25T07:39:11.938Z,2.60
2022-12-25T07:41:38.450Z,3.50
2022-12-25T07:44:14.727Z,3.40
2022-12-25T07:46:41.197Z,3.63
2022-12-25T07:49:07.730Z,3.70
2022-12-25T07:51:34.293Z,3.13
2022-12-25T07:54:00.860Z,3.50
2022-12-25T07:56:28.210Z,3.70
2022-12-25T07:58:54.641Z,3.30
2022-12-25T08:01:24.554Z,3.20
2022-12-25T08:03:53.943Z,3.00
2022-12-25T08:06:21.965Z,3.40
2022-12-25T08:08:48.771Z,2.90
2022-12-25T08:11:15.378Z,2.80
2022-12-25T08:13:41.890Z,3.03
2022-12-25T08:16:10.339Z,2.83
2022-12-25T08:18:38.235Z,2.90
2022-12-25T08:21:10.147Z,3.17
2022-12-25T08:23:38.958Z,2.77
2022-12-25T08:26:08.170Z,3.37
2022-12-25T08:28:35.605Z,3.60
2022-12-25T08:31:09.248Z,2.97
2022-12-25T08:33:37.242Z,2.40
2022-12-25T08:36:06.138Z,2.00
2022-12-25T08:38:32.949Z,1.90
2022-12-25T08:40:59.401Z,2.37
2022-12-25T08:43:25.867Z,2.60
2022-12-25T08:45:52.471Z,2.50
2022-12-25T08:48:19.144Z,2.63
2022-12-25T08:50:47.042Z,2.50
2022-12-25T08:53:14.678Z,2.67
2022-12-25T08:55:41.866Z,2.10
2022-12-25T08:58:08.350Z,2.17
2022-12-25T09:00:35.410Z,2.43
2022-12-25T09:03:02.553Z,2.20
2022-12-25T09:05:29.311Z,2.50
2022-12-25T09:07:55.787Z,2.40
2022-12-25T09:10:22.693Z,3.23
2022-12-25T09:12:49.178Z,2.70
2022-12-25T09:15:15.716Z,2.77
2022-12-25T09:17:42.178Z,2.90
2022-12-25T09:20:09.864Z,2.73
2022-12-25T09:22:36.335Z,2.67
2022-12-25T09:25:02.992Z,2.53
2022-12-25T09:27:29.467Z,2.50
2022-12-25T09:29:55.937Z,2.57
2022-12-25T09:32:22.413Z,2.70
2022-12-25T09:34:50.745Z,5.97
2022-12-25T09:37:17.470Z,7.80
2022-12-25T09:39:46.430Z,8.60
2022-12-25T09:42:20.383Z,6.70
2022-12-25T09:44:58.496Z,5.17
2022-12-25T09:47:29.258Z,4.97
2022-12-25T09:50:15.987Z,4.10
2022-12-25T09:52:51.468Z,10.77
2022-12-25T09:55:24.476Z,13.83
2022-12-25T09:58:02.398Z,10.20
2022-12-25T10:00:38.193Z,7.23
2022-12-25T10:03:23.056Z,7.00
2022-12-25T10:06:17.459Z,7.27
2022-12-25T10:08:52.670Z,7.90
2022-12-25T10:11:40.733Z,9.50
2022-12-25T10:14:16.209Z,5.93
2022-12-25T10:17:12.512Z,4.10
2022-12-25T10:19:55.443Z,4.93
2022-12-25T10:22:42.700Z,3.30
2022-12-25T10:25:23.968Z,3.93
2022-12-25T10:28:11.674Z,3.20
2022-12-25T10:30:40.905Z,2.60
2022-12-25T10:33:09.882Z,2.63
2022-12-25T10:35:39.753Z,2.70
2022-12-25T10:38:17.612Z,2.97
2022-12-25T10:40:56.881Z,2.50
2022-12-25T10:43:31.056Z,2.27
2022-12-25T10:45:58.906Z,2.00
2022-12-25T10:48:28.867Z,1.97
2022-12-25T10:50:56.642Z,2.07
2022-12-25T10:53:26.370Z,2.30
2022-12-25T10:56:00.705Z,1.63
2022-12-25T10:58:27.706Z,1.80
2022-12-25T11:00:59.948Z,1.50
2022-12-25T11:03:31.420Z,1.50
2022-12-25T11:05:58.419Z,1.47
2022-12-25T11:08:27.779Z,1.50
2022-12-25T11:11:06.021Z,1.37
2022-12-25T11:13:36.435Z,1.30
2022-12-25T11:16:06.036Z,1.13
2022-12-25T11:18:36.000Z,1.10
2022-12-25T11:21:18.089Z,1.17
2022-12-25T11:23:48.024Z,1.10
2022-12-25T11:26:15.961Z,1.30
2022-12-25T11:28:44.492Z,1.53
2022-12-25T11:31:19.740Z,1.23
2022-12-25T11:33:55.003Z,1.90
2022-12-25T11:36:30.401Z,1.30
2022-12-25T11:39:07.957Z,1.33
2022-12-25T11:41:37.607Z,1.40
2022-12-25T11:44:12.033Z,1.53
2022-12-25T11:46:45.730Z,1.43
2022-12-25T11:49:18.022Z,1.37
2022-12-25T11:51:47.215Z,1.20
2022-12-25T11:54:22.396Z,1.30
2022-12-25T11:56:48.922Z,1.30
2022-12-25T11:59:27.290Z,1.20
2022-12-25T12:02:03.644Z,1.60
2022-12-25T12:04:42.690Z,1.57
2022-12-25T12:07:27.602Z,1.40
2022-12-25T12:10:10.495Z,1.33
2022-12-25T12:12:52.275Z,1.33
2022-12-25T12:15:30.988Z,1.50
2022-12-25T12:18:20.557Z,1.37
2022-12-25T12:21:08.211Z,1.30
2022-12-25T12:23:47.888Z,1.50
2022-12-25T12:26:22.950Z,1.20
2022-12-25T12:28:52.382Z,1.60
2022-12-25T12:31:19.240Z,2.20
2022-12-25T12:33:57.579Z,1.60
2022-12-25T12:36:35.747Z,1.50
2022-12-25T12:39:05.763Z,1.50
2022-12-25T12:41:45.779Z,1.50
2022-12-25T12:44:14.284Z,1.50
2022-12-25T12:46:51.358Z,1.33
2022-12-25T12:49:22.583Z,1.50
2022-12-25T12:51:49.530Z,1.37
2022-12-25T12:54:25.144Z,1.53
2022-12-25T12:57:29.751Z,1.53
2022-12-25T12:59:59.962Z,1.37
2022-12-25T13:02:43.600Z,1.57
2022-12-25T13:05:37.996Z,1.20
2022-12-25T13:08:30.245Z,1.60
2022-12-25T13:11:20.396Z,1.30
2022-12-25T13:13:49.373Z,1.30
2022-12-25T13:16:30.985Z,1.53
2022-12-25T13:18:58.151Z,1.50
2022-12-25T13:21:27.864Z,1.77
2022-12-25T13:24:02.897Z,1.47
2022-12-25T13:26:30.013Z,1.40
2022-12-25T13:28:57.110Z,1.40
2022-12-25T13:31:25.995Z,1.70
2022-12-25T13:33:56.256Z,1.40
2022-12-25T13:36:22.842Z,1.57
2022-12-25T13:38:52.286Z,1.70
2022-12-25T13:41:43.622Z,1.50
2022-12-25T13:44:18.462Z,1.53
2022-12-25T13:46:45.292Z,1.50
2022-12-25T13:49:17.960Z,1.90
2022-12-25T13:51:45.157Z,2.03
2022-12-25T13:54:15.497Z,1.90
2022-12-25T13:56:52.935Z,1.70
2022-12-25T13:59:22.021Z,2.00
2022-12-25T14:01:50.148Z,1.67
2022-12-25T14:04:20.392Z,1.93
2022-12-25T14:06:47.968Z,1.70
2022-12-25T14:09:15.271Z,1.80
2022-12-25T14:11:45.723Z,1.90
2022-12-25T14:14:19.632Z,2.07
2022-12-25T14:16:49.318Z,1.67
2022-12-25T14:19:34.396Z,1.80
2022-12-25T14:22:16.085Z,1.70
2022-12-25T14:24:42.564Z,1.80
2022-12-25T14:27:28.029Z,1.70
2022-12-25T14:29:56.942Z,2.13
2022-12-25T14:32:29.834Z,1.70
2022-12-25T14:35:03.446Z,2.57
2022-12-25T14:37:32.640Z,2.03
2022-12-25T14:40:06.707Z,2.23
2022-12-25T14:42:37.515Z,1.90
2022-12-25T14:45:06.238Z,1.90
2022-12-25T14:47:39.463Z,1.90
2022-12-25T14:50:24.456Z,2.20
2022-12-25T14:52:51.019Z,2.20
2022-12-25T14:55:23.333Z,2.07
2022-12-25T14:57:53.348Z,1.67
2022-12-25T15:00:35.289Z,1.90
2022-12-25T15:03:04.948Z,2.30
2022-12-25T15:05:37.494Z,2.60
2022-12-25T15:08:11.209Z,2.70
2022-12-25T15:13:27.073Z,2.13
2022-12-25T15:16:02.171Z,2.30
2022-12-25T15:18:34.364Z,2.20
2022-12-25T15:21:02.038Z,2.40
2022-12-25T15:23:28.507Z,2.20
2022-12-25T15:25:55.003Z,2.43
2022-12-25T15:28:21.465Z,2.50
2022-12-25T15:30:49.578Z,2.57
2022-12-25T15:33:18.116Z,2.83
2022-12-25T15:35:44.924Z,2.90
2022-12-25T15:38:12.377Z,2.37
2022-12-25T15:40:39.454Z,2.60
2022-12-25T15:43:11.438Z,2.43
2022-12-25T15:45:48.933Z,2.40
2022-12-25T15:48:15.390Z,2.43
2022-12-25T15:50:42.228Z,3.37
2022-12-25T15:53:10.704Z,2.70
2022-12-25T15:55:37.668Z,3.10
2022-12-25T15:58:04.224Z,2.87
2022-12-25T16:00:30.783Z,2.87
2022-12-25T16:02:57.416Z,3.17
2022-12-25T16:05:24.093Z,3.03
2022-12-25T16:07:50.590Z,6.37
2022-12-25T16:10:19.375Z,3.83
2022-12-25T16:12:46.216Z,5.53
2022-12-25T16:15:14.443Z,7.20
2022-12-25T16:17:41.229Z,8.17
2022-12-25T16:20:08.511Z,7.73
2022-12-25T16:22:39.803Z,7.07
2022-12-25T16:25:13.409Z,7.57
2022-12-25T16:27:40.505Z,6.53
2022-12-25T16:30:07.666Z,5.50
2022-12-25T16:32:34.141Z,7.37
2022-12-25T16:35:00.885Z,8.17
2022-12-25T16:37:28.660Z,7.90
2022-12-25T16:39:55.228Z,8.17
2022-12-25T16:42:21.679Z,9.73
2022-12-25T16:44:48.204Z,16.03
2022-12-25T16:47:14.727Z,17.47
2022-12-25T16:49:41.300Z,10.80
2022-12-25T16:52:07.781Z,7.37
2022-12-25T16:54:34.238Z,9.80
2022-12-25T16:57:00.804Z,9.37
2022-12-25T16:59:31.094Z,7.57
2022-12-25T17:01:57.693Z,5.20
2022-12-25T17:04:25.239Z,4.80
2022-12-25T17:06:51.676Z,3.77
2022-12-25T17:09:18.134Z,3.00
2022-12-25T17:11:44.590Z,3.10
2022-12-25T17:14:11.059Z,2.90
2022-12-25T17:16:38.612Z,3.60
2022-12-25T17:19:09.597Z,3.57
2022-12-25T17:21:38.407Z,3.90
2022-12-25T17:24:05.752Z,3.93
2022-12-25T17:26:33.367Z,4.60
2022-12-25T17:29:00.390Z,4.63
2022-12-25T17:31:27.253Z,4.40
2022-12-25T17:33:54.251Z,4.47
2022-12-25T17:36:22.132Z,4.53
2022-12-25T17:38:48.722Z,5.27
2022-12-25T17:41:16.873Z,7.50
2022-12-25T17:43:45.642Z,9.67
2022-12-25T17:46:17.820Z,7.37
2022-12-25T17:48:45.435Z,7.90
2022-12-25T17:51:14.279Z,15.60
2022-12-25T17:53:43.338Z,5.50
2022-12-25T17:56:10.405Z,4.00
2022-12-25T17:58:38.002Z,3.80
2022-12-25T18:01:12.966Z,3.30
2022-12-25T18:03:39.687Z,4.57
2022-12-25T18:06:08.541Z,4.03
2022-12-25T18:08:39.363Z,3.80
2022-12-25T18:11:11.983Z,3.67
2022-12-25T18:13:40.419Z,3.50
2022-12-25T18:16:07.949Z,3.53
2022-12-25T18:18:35.558Z,3.50
2022-12-25T18:21:02.229Z,3.43
2022-12-25T18:23:29.466Z,3.30
2022-12-25T18:25:56.403Z,3.00
2022-12-25T18:28:23.134Z,3.37
2022-12-25T18:30:49.836Z,3.40
2022-12-25T18:33:16.550Z,3.47
2022-12-25T18:35:43.995Z,3.63
2022-12-25T18:38:11.658Z,3.33
2022-12-25T18:40:42.209Z,2.97
2022-12-25T18:43:09.211Z,3.37
2022-12-25T18:45:36.374Z,3.80
2022-12-25T18:48:06.028Z,3.63
2022-12-25T18:50:33.669Z,4.13
2022-12-25T18:53:00.664Z,3.67
2022-12-25T18:55:27.244Z,3.77
2022-12-25T18:57:54.184Z,4.20
2022-12-25T19:00:21.368Z,3.60
2022-12-25T19:02:48.492Z,4.47
2022-12-25T19:05:16.098Z,4.43
2022-12-25T19:07:42.730Z,4.23
2022-12-25T19:10:10.420Z,3.93
2022-12-25T19:12:36.997Z,4.10
2022-12-25T19:15:03.810Z,4.00
2022-12-25T19:17:32.086Z,3.60
2022-12-25T19:19:59.017Z,3.50
2022-12-25T19:22:25.657Z,3.80
2022-12-25T19:24:52.145Z,3.40
2022-12-25T19:27:18.579Z,3.77
2022-12-25T19:29:45.056Z,4.37
2022-12-25T19:32:11.614Z,4.00
2022-12-25T19:34:38.187Z,4.17
2022-12-25T19:37:04.750Z,3.93
2022-12-25T19:39:31.261Z,3.80
2022-12-25T19:41:57.709Z,4.30
2022-12-25T19:44:24.202Z,3.90
2022-12-25T19:46:50.686Z,3.83
2022-12-25T19:49:17.249Z,4.37
2022-12-25T19:51:45.807Z,4.47
2022-12-25T19:54:17.122Z,4.33
2022-12-25T19:56:43.625Z,3.90
2022-12-25T19:59:12.214Z,4.20
2022-12-25T20:01:39.451Z,4.03
2022-12-25T20:04:08.701Z,4.17
2022-12-25T20:06:38.126Z,4.43
2022-12-25T20:09:10.651Z,3.90
2022-12-25T20:11:37.964Z,4.57
2022-12-25T20:14:06.282Z,3.90
2022-12-25T20:16:33.275Z,4.17
2022-12-25T20:18:59.752Z,4.40
2022-12-25T20:21:29.947Z,4.27
2022-12-25T20:23:57.307Z,4.57
2022-12-25T20:26:27.684Z,5.40
2022-12-25T20:28:54.575Z,4.97
2022-12-25T20:31:24.249Z,4.40
2022-12-25T20:33:50.825Z,4.97
2022-12-25T20:36:18.803Z,4.70
2022-12-25T20:38:45.501Z,4.83
2022-12-25T20:41:30.428Z,4.53
2022-12-25T20:43:57.345Z,4.47
2022-12-25T20:46:24.699Z,4.60
2022-12-25T20:48:52.769Z,4.30
2022-12-25T20:51:23.342Z,5.20
2022-12-25T20:53:50.514Z,4.70
2022-12-25T20:56:19.240Z,4.13
2022-12-25T20:58:46.031Z,4.60
2022-12-25T21:01:16.298Z,4.73
2022-12-25T21:03:43.411Z,4.50
2022-12-25T21:06:10.337Z,4.60
2022-12-25T21:08:37.839Z,4.77
2022-12-25T21:11:05.081Z,4.90
2022-12-25T21:13:37.996Z,4.90
2022-12-25T21:16:06.517Z,4.47
2022-12-25T21:18:32.997Z,5.43
2022-12-25T21:21:00.883Z,5.53
2022-12-25T21:23:28.706Z,16.27
2022-12-25T21:25:55.235Z,15.27
2022-12-25T21:28:22.459Z,9.40
2022-12-25T21:30:48.980Z,25.97
2022-12-25T21:33:34.572Z,25.77
2022-12-25T21:36:08.890Z,5.80
2022-12-25T21:38:35.553Z,5.93
2022-12-25T21:41:06.179Z,5.33
2022-12-25T21:43:34.478Z,6.20
2022-12-25T21:46:03.217Z,8.50
2022-12-25T21:48:30.192Z,11.07
2022-12-25T21:51:23.388Z,8.50
2022-12-25T21:53:49.954Z,14.67
2022-12-25T21:56:16.932Z,8.07
2022-12-25T21:58:43.466Z,4.80
2022-12-25T22:01:11.113Z,6.37
2022-12-25T22:03:37.931Z,4.93
2022-12-25T22:06:22.973Z,6.03
2022-12-25T22:08:49.419Z,6.00
2022-12-25T22:11:34.460Z,5.87
2022-12-25T22:14:19.218Z,4.50
2022-12-25T22:17:25.107Z,37.73
2022-12-25T22:19:51.585Z,6.83
2022-12-25T22:22:23.345Z,8.17
2022-12-25T22:24:51.831Z,16.80
2022-12-25T22:27:20.111Z,6.40
2022-12-25T22:29:46.637Z,7.70
2022-12-25T22:32:14.320Z,5.90
2022-12-25T22:34:40.983Z,9.93
2022-12-25T22:37:10.349Z,4.47
2022-12-25T22:39:36.968Z,10.30
2022-12-25T22:42:03.663Z,6.27
2022-12-25T22:44:31.626Z,6.33
2022-12-25T22:46:58.446Z,9.63
2022-12-25T22:49:26.050Z,12.60
2022-12-25T22:51:54.067Z,4.97
2022-12-25T22:54:22.104Z,5.50
2022-12-25T22:56:50.787Z,6.07
2022-12-25T22:59:19.691Z,6.50
2022-12-25T23:01:46.843Z,4.67
2022-12-25T23:04:13.369Z,4.80
2022-12-25T23:06:40.495Z,5.37
2022-12-25T23:09:08.944Z,4.93
2022-12-25T23:11:35.902Z,4.00
2022-12-25T23:14:21.878Z,3.77
2022-12-25T23:16:48.410Z,3.87
2022-12-25T23:19:33.961Z,3.60
2022-12-25T23:22:19.090Z,3.40
2022-12-25T23:25:03.969Z,3.60
2022-12-25T23:27:30.455Z,3.20
2022-12-25T23:29:56.885Z,3.87
2022-12-25T23:32:25.519Z,3.37
2022-12-25T23:34:52.614Z,3.40
2022-12-25T23:37:19.782Z,3.70
2022-12-25T23:39:47.326Z,3.70
2022-12-25T23:42:13.942Z,3.20
2022-12-25T23:44:40.497Z,3.80
2022-12-25T23:47:07.112Z,3.60
2022-12-25T23:49:33.684Z,3.03
2022-12-25T23:52:00.150Z,3.30
2022-12-25T23:54:28.939Z,3.43
2022-12-25T23:56:57.492Z,3.67
2022-12-25T23:59:29.282Z,3.97
